createdAt,value
2022-08-31T00:05:16.843Z,12.3
2022-08-31T00:11:16.868Z,12.2
2022-08-31T00:17:17.256Z,12.4
2022-08-31T00:23:17.122Z,12.4
2022-08-31T00:29:17.271Z,12.5
2022-08-31T00:35:17.978Z,12.8
2022-08-31T00:41:17.326Z,13.9
2022-08-31T00:47:16.840Z,14.4
2022-08-31T00:53:17.587Z,15.1
2022-08-31T00:59:17.721Z,14.9
2022-08-31T01:05:17.493Z,15
2022-08-31T01:11:16.956Z,15.2
2022-08-31T01:17:16.867Z,15.1
2022-08-31T01:23:17.091Z,15.4
2022-08-31T01:29:17.369Z,15.3
2022-08-31T01:35:18.270Z,15.2
2022-08-31T01:41:17.033Z,15.4
2022-08-31T01:47:17.468Z,15.6
2022-08-31T01:53:17.215Z,15.5
2022-08-31T01:59:16.979Z,15.4
2022-08-31T02:05:19.177Z,15.6
2022-08-31T02:11:18.072Z,15.4
2022-08-31T02:17:17.317Z,15.3
2022-08-31T02:23:16.860Z,15.5
2022-08-31T02:29:17.487Z,15.4
2022-08-31T02:35:17.522Z,15.4
2022-08-31T02:41:17.123Z,15.3
2022-08-31T02:47:17.438Z,15.4
2022-08-31T02:53:17.846Z,15.2
2022-08-31T02:59:17.252Z,15.2
2022-08-31T03:05:16.886Z,15.2
2022-08-31T03:11:17.460Z,15.2
2022-08-31T03:17:18.074Z,15.2
2022-08-31T03:23:16.942Z,15.3
2022-08-31T03:29:17.148Z,15.4
2022-08-31T03:35:17.512Z,15.4
2022-08-31T03:41:17.498Z,15.3
2022-08-31T03:47:18.177Z,15.4
2022-08-31T03:53:22.001Z,15.4
2022-08-31T03:59:17.389Z,15.5
2022-08-31T04:05:19.265Z,15.6
2022-08-31T04:11:17.187Z,15.7
2022-08-31T04:17:18.839Z,15.6
2022-08-31T04:23:17.372Z,15.7
2022-08-31T04:29:16.933Z,15.9
2022-08-31T04:35:18.303Z,15.7
2022-08-31T04:41:17.583Z,15.8
2022-08-31T04:47:18.572Z,15.9
2022-08-31T04:53:17.232Z,15.8
2022-08-31T04:59:17.848Z,15.8
2022-08-31T05:05:18.569Z,15.7
2022-08-31T05:11:19.049Z,15.8
2022-08-31T05:17:17.805Z,15.7
2022-08-31T05:23:17.431Z,15.8
2022-08-31T05:29:17.215Z,15.7
2022-08-31T05:35:18.420Z,15.8
2022-08-31T05:41:17.140Z,15.9
2022-08-31T05:47:17.004Z,16
2022-08-31T05:53:17.302Z,15.9
2022-08-31T05:59:17.143Z,15.9
2022-08-31T06:05:18.560Z,15.8
2022-08-31T06:11:17.200Z,15.8
2022-08-31T06:17:17.753Z,15.9
2022-08-31T06:23:17.203Z,15.9
2022-08-31T06:29:17.173Z,16
2022-08-31T06:35:17.390Z,16
2022-08-31T06:41:17.111Z,16.1
2022-08-31T06:47:21.994Z,16.1
2022-08-31T06:53:18.946Z,16.3
2022-08-31T06:59:17.184Z,16.5
2022-08-31T07:05:24.319Z,16.4
2022-08-31T07:11:17.361Z,16.5
2022-08-31T07:17:18.175Z,16.4
2022-08-31T07:23:17.426Z,16.5
2022-08-31T07:29:16.986Z,16.3
2022-08-31T07:35:17.915Z,16.6
2022-08-31T07:41:17.483Z,16.5
2022-08-31T07:47:17.560Z,16.8
2022-08-31T07:53:18.175Z,16.6
2022-08-31T07:59:17.180Z,16.6
2022-08-31T08:05:18.621Z,16.4
2022-08-31T08:11:17.822Z,16.3
2022-08-31T08:17:17.224Z,16.4
2022-08-31T08:23:18.366Z,16.3
2022-08-31T08:29:17.235Z,16.3
2022-08-31T08:35:17.598Z,16
2022-08-31T08:41:18.500Z,15.9
2022-08-31T08:47:17.083Z,15.5
2022-08-31T08:53:17.753Z,15.8
2022-08-31T08:59:20.004Z,15.8
2022-08-31T09:05:18.024Z,15.7
2022-08-31T09:11:16.710Z,16
2022-08-31T09:17:16.732Z,16.3
2022-08-31T09:23:16.997Z,16.2
2022-08-31T09:29:17.774Z,16.1
2022-08-31T09:35:17.199Z,16.2
2022-08-31T09:41:17.331Z,16.5
2022-08-31T09:47:16.997Z,16.4
2022-08-31T09:53:17.084Z,16.4
2022-08-31T09:59:18.199Z,15.8
2022-08-31T10:05:17.594Z,15.9
2022-08-31T10:11:16.811Z,15.8
2022-08-31T10:17:17.981Z,15.7
2022-08-31T10:23:17.413Z,15.8
2022-08-31T10:29:23.394Z,15.5
2022-08-31T10:35:17.239Z,15.5
2022-08-31T10:41:16.903Z,15.5
2022-08-31T10:47:24.954Z,15.5
2022-08-31T10:53:17.853Z,15.2
2022-08-31T10:59:16.923Z,15.3
2022-08-31T11:05:16.905Z,15.5
2022-08-31T11:11:17.102Z,15.4
2022-08-31T11:17:16.864Z,15.4
2022-08-31T11:23:16.753Z,15
2022-08-31T11:29:16.822Z,15
2022-08-31T11:35:17.666Z,15
2022-08-31T11:41:16.793Z,15.1
2022-08-31T11:47:16.809Z,15.7
2022-08-31T11:53:16.994Z,15.7
2022-08-31T11:59:16.840Z,15.7
2022-08-31T12:05:17.019Z,15.6
2022-08-31T12:11:17.001Z,15.6
2022-08-31T12:17:16.782Z,15.9
2022-08-31T12:23:16.785Z,15.9
2022-08-31T12:29:16.780Z,15.6
2022-08-31T12:35:17.163Z,15.6
2022-08-31T12:41:20.254Z,15.5
2022-08-31T12:47:20.093Z,15.7
2022-08-31T12:53:16.827Z,15.4
2022-08-31T12:59:16.792Z,15.2
2022-08-31T13:05:17.120Z,15.3
2022-08-31T13:11:22.735Z,15.3
2022-08-31T13:17:17.734Z,15.7
2022-08-31T13:23:17.902Z,15.4
2022-08-31T13:29:17.112Z,15.5
2022-08-31T13:35:19.807Z,15.3
2022-08-31T13:41:17.680Z,14.9
2022-08-31T13:47:17.019Z,15.1
2022-08-31T13:53:33.133Z,15.1
2022-08-31T13:59:17.007Z,15.3
2022-08-31T14:05:16.874Z,15.6
2022-08-31T14:11:16.914Z,14.7
2022-08-31T14:17:17.257Z,14.5
2022-08-31T14:23:17.774Z,14.3
2022-08-31T14:29:17.523Z,14.3
2022-08-31T14:35:17.220Z,14.4
2022-08-31T14:41:18.075Z,14.1
2022-08-31T14:47:17.421Z,14.1
2022-08-31T14:53:17.168Z,13.9
2022-08-31T14:59:17.099Z,13.7
2022-08-31T15:05:18.539Z,13.6
2022-08-31T15:11:17.470Z,13.7
2022-08-31T15:17:19.675Z,13.6
2022-08-31T15:23:17.359Z,13.7
2022-08-31T15:29:17.187Z,14.2
2022-08-31T15:35:18.919Z,14.1
2022-08-31T15:41:20.280Z,14.2
2022-08-31T15:47:17.750Z,13.8
2022-08-31T15:53:19.098Z,13.7
2022-08-31T15:59:17.179Z,13.6
2022-08-31T16:05:17.787Z,13.7
2022-08-31T16:11:18.083Z,13.2
2022-08-31T16:17:17.301Z,12.9
2022-08-31T16:23:17.452Z,13.2
2022-08-31T16:29:17.370Z,13.2
2022-08-31T16:35:17.478Z,13.1
2022-08-31T16:41:18.063Z,12.8
2022-08-31T16:47:17.368Z,12.9
2022-08-31T16:53:17.740Z,12.9
2022-08-31T16:59:17.439Z,12.9
2022-08-31T17:05:17.699Z,13
2022-08-31T17:11:17.354Z,12.9
2022-08-31T17:17:18.577Z,13.4
2022-08-31T17:23:17.642Z,13.6
2022-08-31T17:29:19.760Z,13.2
2022-08-31T17:35:19.078Z,13.5
2022-08-31T17:41:17.552Z,13.4
2022-08-31T17:47:18.491Z,14.2
2022-08-31T17:53:17.796Z,13.4
2022-08-31T17:59:18.144Z,14.4
2022-08-31T18:05:19.554Z,14.4
2022-08-31T18:11:17.482Z,14.4
2022-08-31T18:17:17.891Z,14.2
2022-08-31T18:23:17.458Z,13.7
2022-08-31T18:29:20.520Z,13.7
2022-08-31T18:35:20.247Z,14.1
2022-08-31T18:41:19.757Z,14.2
2022-08-31T18:47:17.412Z,14.4
2022-08-31T18:53:23.801Z,14
2022-08-31T18:59:17.540Z,14.2
2022-08-31T19:05:18.023Z,14.4
2022-08-31T19:11:18.065Z,14.4
2022-08-31T19:17:17.888Z,13.7
2022-08-31T19:23:20.227Z,13.6
2022-08-31T19:29:22.751Z,13.2
2022-08-31T19:35:19.567Z,13.1
2022-08-31T19:41:18.115Z,13.1
2022-08-31T19:47:25.075Z,13
2022-08-31T19:53:21.950Z,13
2022-08-31T19:59:17.969Z,12.5
2022-08-31T20:05:25.107Z,12.5
2022-08-31T20:11:21.476Z,12
2022-08-31T20:17:17.383Z,11.9
2022-08-31T20:23:17.844Z,11.9
2022-08-31T20:29:17.526Z,11.7
2022-08-31T20:35:19.010Z,11.7
2022-08-31T20:41:17.850Z,11.8
2022-08-31T20:47:17.202Z,11.6
2022-08-31T20:53:17.264Z,11.6
2022-08-31T20:59:18.317Z,11.6
2022-08-31T21:05:39.008Z,11.7
2022-08-31T21:11:17.709Z,11.8
2022-08-31T21:17:17.292Z,11.7
2022-08-31T21:23:18.098Z,11.7
2022-08-31T21:29:17.398Z,11.6
2022-08-31T21:35:17.608Z,11.5
2022-08-31T21:41:17.968Z,11.6
2022-08-31T21:47:18.478Z,11.5
2022-08-31T21:53:17.290Z,11.5
2022-08-31T21:59:17.647Z,11.7
2022-08-31T22:05:18.736Z,11.6
2022-08-31T22:11:17.516Z,11.6
2022-08-31T22:17:17.505Z,11.6
2022-08-31T22:23:17.902Z,11.5
2022-08-31T22:29:17.895Z,11.5
2022-08-31T22:35:19.155Z,11.4
2022-08-31T22:41:17.613Z,11.4
2022-08-31T22:47:17.589Z,11.3
2022-08-31T22:53:18.006Z,11.3
2022-08-31T22:59:17.642Z,11.3
2022-08-31T23:05:17.657Z,11.3
2022-08-31T23:11:17.715Z,11.1
2022-08-31T23:17:17.650Z,11.2
2022-08-31T23:23:17.385Z,11.1
2022-08-31T23:29:17.536Z,11.2
2022-08-31T23:35:17.688Z,11.2
2022-08-31T23:41:17.530Z,11.1
2022-08-31T23:47:17.527Z,11.1
2022-08-31T23:53:17.401Z,11.4
2022-08-31T23:59:17.452Z,11.4
